createdAt,value
2022-10-25T00:03:10.841Z,60.23
2022-10-25T00:08:09.121Z,60.18
2022-10-25T00:13:06.504Z,60.35
2022-10-25T00:18:14.010Z,60.37
2022-10-25T00:23:14.409Z,60.28
2022-10-25T00:28:16.794Z,60.31
2022-10-25T00:33:14.036Z,60.31
2022-10-25T00:38:12.051Z,60.47
2022-10-25T00:43:09.921Z,60.39
2022-10-25T00:48:11.711Z,60.83
2022-10-25T00:53:13.715Z,60.74
2022-10-25T00:58:14.583Z,60.71
2022-10-25T01:03:12.562Z,60.85
2022-10-25T01:08:12.711Z,60.90
2022-10-25T01:13:10.448Z,60.71
2022-10-25T01:18:15.070Z,60.75
2022-10-25T01:23:28.082Z,60.65
2022-10-25T01:28:37.731Z,60.77
2022-10-25T01:33:49.819Z,60.95
2022-10-25T01:38:51.324Z,61.13
2022-10-25T01:44:00.519Z,61.26
2022-10-25T01:49:02.940Z,61.30
2022-10-25T01:53:59.796Z,61.42
2022-10-25T01:59:23.429Z,61.21
2022-10-25T02:04:33.392Z,61.39
2022-10-25T02:09:33.744Z,61.37
2022-10-25T02:14:35.064Z,61.31
2022-10-25T02:19:35.552Z,61.77
2022-10-25T02:24:35.788Z,61.86
2022-10-25T02:29:35.371Z,61.95
2022-10-25T02:34:33.426Z,61.84
2022-10-25T02:39:33.953Z,61.80
2022-10-25T02:44:31.178Z,62.21
2022-10-25T02:49:28.371Z,62.09
2022-10-25T02:54:26.123Z,62.22
2022-10-25T02:59:23.355Z,62.07
2022-10-25T03:04:20.295Z,62.05
2022-10-25T03:09:17.284Z,62.03
2022-10-25T03:14:18.182Z,62.09
2022-10-25T03:19:15.176Z,62.42
2022-10-25T03:24:12.056Z,62.24
2022-10-25T03:29:08.987Z,62.33
2022-10-25T03:34:06.683Z,62.44
2022-10-25T03:39:03.586Z,62.33
2022-10-25T03:44:00.474Z,62.35
2022-10-25T03:48:57.300Z,62.39
2022-10-25T03:53:54.836Z,62.68
2022-10-25T03:58:53.371Z,62.67
2022-10-25T04:03:51.626Z,62.89
2022-10-25T04:08:48.828Z,62.73
2022-10-25T04:13:48.271Z,63.06
2022-10-25T04:18:45.270Z,62.98
2022-10-25T04:23:54.335Z,63.28
2022-10-25T04:29:09.787Z,63.37
2022-10-25T04:34:27.210Z,63.25
2022-10-25T04:39:25.676Z,63.37
2022-10-25T04:44:23.505Z,63.48
2022-10-25T04:49:21.574Z,63.42
2022-10-25T04:54:18.703Z,63.62
2022-10-25T04:59:24.360Z,63.73
2022-10-25T05:04:32.721Z,63.97
2022-10-25T05:09:33.240Z,63.88
2022-10-25T05:14:33.563Z,63.66
2022-10-25T05:19:32.284Z,63.50
2022-10-25T05:24:29.581Z,63.29
2022-10-25T05:29:26.848Z,63.33
2022-10-25T05:34:24.508Z,63.10
2022-10-25T05:39:37.037Z,63.02
2022-10-25T05:44:39.223Z,63.05
2022-10-25T05:49:41.943Z,62.63
2022-10-25T05:54:40.154Z,62.49
2022-10-25T05:59:37.030Z,62.32
2022-10-25T06:04:34.387Z,61.95
2022-10-25T06:15:18.275Z,61.24
2022-10-25T06:20:17.287Z,60.70
2022-10-25T06:25:19.639Z,60.31
2022-10-25T06:30:16.838Z,59.92
2022-10-25T06:35:56.062Z,59.40
2022-10-25T06:40:52.184Z,58.24
2022-10-25T06:45:49.287Z,57.72
2022-10-25T06:50:48.554Z,56.98
2022-10-25T06:55:48.992Z,56.30
2022-10-25T07:00:48.892Z,55.72
2022-10-25T07:05:46.717Z,54.76
2022-10-25T07:10:55.246Z,54.14
2022-10-25T07:15:56.377Z,53.38
2022-10-25T07:21:06.657Z,52.95
2022-10-25T07:26:11.066Z,52.30
2022-10-25T07:31:19.393Z,50.52
2022-10-25T07:36:18.513Z,50.52
2022-10-25T07:41:27.052Z,49.55
2022-10-25T07:46:24.782Z,49.63
2022-10-25T07:51:22.207Z,49.13
2022-10-25T07:56:23.491Z,48.11
2022-10-25T08:01:26.648Z,47.87
2022-10-25T08:06:25.334Z,47.42
2022-10-25T08:11:22.168Z,47.25
2022-10-25T08:16:19.126Z,47.29
2022-10-25T08:21:16.645Z,46.70
2022-10-25T08:26:24.524Z,46.65
2022-10-25T08:31:31.322Z,46.35
2022-10-25T08:36:29.052Z,46.55
2022-10-25T08:41:33.972Z,46.72
2022-10-25T08:46:34.083Z,47.06
2022-10-25T08:51:41.662Z,46.63
2022-10-25T08:56:46.586Z,46.65
2022-10-25T09:01:47.363Z,46.14
2022-10-25T09:06:56.241Z,46.25
2022-10-25T09:12:05.312Z,45.95
2022-10-25T09:17:23.755Z,45.56
2022-10-25T09:22:27.523Z,45.28
2022-10-25T09:27:34.930Z,44.96
2022-10-25T09:32:52.683Z,44.99
2022-10-25T09:37:55.345Z,44.74
2022-10-25T09:42:56.371Z,44.79
2022-10-25T09:48:01.808Z,44.55
2022-10-25T09:53:09.923Z,44.05
2022-10-25T09:58:16.091Z,43.77
2022-10-25T10:03:14.275Z,43.64
2022-10-25T10:08:17.375Z,44.04
2022-10-25T10:13:20.219Z,43.30
2022-10-25T10:18:29.116Z,43.83
2022-10-25T10:23:28.433Z,43.40
2022-10-25T10:28:25.576Z,43.51
2022-10-25T10:33:23.043Z,43.31
2022-10-25T10:43:30.205Z,43.09
2022-10-25T10:48:36.717Z,43.09
2022-10-25T10:53:37.415Z,42.90
2022-10-25T10:58:38.503Z,42.83
2022-10-25T11:03:59.141Z,43.33
2022-10-25T11:09:15.630Z,42.93
2022-10-25T11:14:15.139Z,42.88
2022-10-25T11:19:26.937Z,42.21
2022-10-25T11:24:32.012Z,42.27
2022-10-25T11:30:03.605Z,41.23
2022-10-25T11:35:10.101Z,40.56
2022-10-25T11:40:15.995Z,40.19
2022-10-25T11:51:14.318Z,39.21
2022-10-25T11:56:23.171Z,38.21
2022-10-25T12:01:35.207Z,38.63
2022-10-25T12:06:40.386Z,37.96
2022-10-25T12:11:53.463Z,38.12
2022-10-25T12:17:23.771Z,37.76
2022-10-25T12:22:30.820Z,37.93
2022-10-25T12:27:44.172Z,37.35
2022-10-25T12:32:49.917Z,37.26
2022-10-25T12:38:18.185Z,36.71
2022-10-25T12:43:24.034Z,36.66
2022-10-25T12:48:50.028Z,36.53
2022-10-25T12:54:12.665Z,36.39
2022-10-25T12:59:34.439Z,36.65
2022-10-25T13:05:31.221Z,36.47
2022-10-25T13:10:57.953Z,36.38
2022-10-25T13:16:04.330Z,36.72
2022-10-25T13:21:02.415Z,36.82
2022-10-25T13:26:09.176Z,36.65
2022-10-25T13:32:01.337Z,36.33
2022-10-25T13:37:00.252Z,36.71
2022-10-25T13:42:10.367Z,36.42
2022-10-25T13:47:28.682Z,36.58
2022-10-25T13:52:30.952Z,36.97
2022-10-25T13:58:10.431Z,36.73
2022-10-25T14:03:46.870Z,37.35
2022-10-25T14:08:54.611Z,37.63
2022-10-25T14:14:02.304Z,37.57
2022-10-25T14:19:07.170Z,37.92
2022-10-25T14:24:12.163Z,38.01
2022-10-25T14:29:32.603Z,38.33
2022-10-25T14:34:33.482Z,38.49
2022-10-25T14:40:05.642Z,38.48
2022-10-25T14:45:41.108Z,38.54
2022-10-25T14:50:56.938Z,38.80
2022-10-25T14:55:59.644Z,38.84
2022-10-25T15:01:05.290Z,39.36
2022-10-25T15:06:07.507Z,39.48
2022-10-25T15:11:10.406Z,39.86
2022-10-25T15:16:37.778Z,40.25
2022-10-25T15:21:43.238Z,40.07
2022-10-25T15:27:01.367Z,40.70
2022-10-25T15:32:02.492Z,40.56
2022-10-25T15:37:16.357Z,40.66
2022-10-25T15:47:28.961Z,41.11
2022-10-25T15:52:27.535Z,41.04
2022-10-25T15:57:28.142Z,41.47
2022-10-25T16:03:38.846Z,41.79
2022-10-25T16:08:38.099Z,42.15
2022-10-25T16:13:38.827Z,42.38
2022-10-25T16:18:38.572Z,42.60
2022-10-25T16:23:40.879Z,42.74
2022-10-25T16:28:54.303Z,42.84
2022-10-25T16:34:10.988Z,43.25
2022-10-25T16:39:12.154Z,43.47
2022-10-25T16:44:18.049Z,43.55
2022-10-25T16:49:21.279Z,43.90
2022-10-25T16:54:30.284Z,44.26
2022-10-25T16:59:28.770Z,44.60
2022-10-25T17:04:28.118Z,45.02
2022-10-25T17:09:29.668Z,44.85
2022-10-25T17:14:35.062Z,44.88
2022-10-25T17:19:36.969Z,45.21
2022-10-25T17:24:39.053Z,45.30
2022-10-25T17:29:38.137Z,44.97
2022-10-25T17:34:38.810Z,45.22
2022-10-25T17:39:59.096Z,45.15
2022-10-25T17:45:16.635Z,45.28
2022-10-25T17:50:16.687Z,45.39
2022-10-25T17:55:18.898Z,45.30
2022-10-25T18:00:16.828Z,45.46
2022-10-25T18:05:20.203Z,45.60
2022-10-25T18:10:19.182Z,45.82
2022-10-25T18:15:16.413Z,45.98
2022-10-25T18:20:17.683Z,46.27
2022-10-25T18:25:15.108Z,46.14
2022-10-25T18:30:16.839Z,46.26
2022-10-25T18:35:14.345Z,46.20
2022-10-25T18:40:13.731Z,46.35
2022-10-25T18:45:10.627Z,46.37
2022-10-25T18:50:11.626Z,46.55
2022-10-25T18:55:09.116Z,46.55
2022-10-25T19:00:08.392Z,46.55
2022-10-25T19:10:03.715Z,46.25
2022-10-25T19:15:00.713Z,46.34
2022-10-25T19:20:04.137Z,46.23
2022-10-25T19:25:04.987Z,46.23
2022-10-25T19:30:02.182Z,46.51
2022-10-25T19:34:59.458Z,46.69
2022-10-25T19:39:58.243Z,46.75
2022-10-25T19:44:56.906Z,46.81
2022-10-25T19:49:53.796Z,46.57
2022-10-25T19:54:50.940Z,46.72
2022-10-25T19:59:47.961Z,46.94
2022-10-25T20:04:45.753Z,47.17
2022-10-25T20:09:47.272Z,47.08
2022-10-25T20:14:44.428Z,47.65
2022-10-25T20:19:41.469Z,47.76
2022-10-25T20:24:39.401Z,47.63
2022-10-25T20:29:44.796Z,47.91
2022-10-25T20:34:41.832Z,48.09
2022-10-25T20:39:39.693Z,48.28
2022-10-25T20:44:36.924Z,48.53
2022-10-25T20:49:34.537Z,48.71
2022-10-25T20:54:34.423Z,49.08
2022-10-25T20:59:33.205Z,48.93
2022-10-25T21:04:52.771Z,49.09
2022-10-25T21:09:49.504Z,49.16
2022-10-25T21:14:47.526Z,49.52
2022-10-25T21:19:44.589Z,49.72
2022-10-25T21:24:41.527Z,49.85
2022-10-25T21:29:39.537Z,50.09
2022-10-25T21:34:37.106Z,50.23
2022-10-25T21:39:33.936Z,50.62
2022-10-25T21:44:30.751Z,50.48
2022-10-25T21:49:27.716Z,50.91
2022-10-25T21:54:27.689Z,51.13
2022-10-25T21:59:24.638Z,51.23
2022-10-25T22:04:23.242Z,51.12
2022-10-25T22:09:20.258Z,51.37
2022-10-25T22:14:18.023Z,51.52
2022-10-25T22:19:16.705Z,52.02
2022-10-25T22:24:14.167Z,52.17
2022-10-25T22:29:12.876Z,52.36
2022-10-25T22:34:10.401Z,52.76
2022-10-25T22:39:08.015Z,52.71
2022-10-25T22:44:05.206Z,52.85
2022-10-25T22:49:05.657Z,53.23
2022-10-25T22:54:03.513Z,53.08
2022-10-25T22:59:02.688Z,53.65
2022-10-25T23:04:01.008Z,53.83
2022-10-25T23:08:59.831Z,53.80
2022-10-25T23:14:01.023Z,53.96
2022-10-25T23:18:59.915Z,54.25
2022-10-25T23:23:58.056Z,54.24
2022-10-25T23:28:55.809Z,54.42
2022-10-25T23:33:54.879Z,54.74
2022-10-25T23:38:52.947Z,54.46
2022-10-25T23:43:50.431Z,54.51
2022-10-25T23:48:47.500Z,54.87
2022-10-25T23:53:45.215Z,54.98
2022-10-25T23:58:42.715Z,55.36
